Alba, Missouri
Current Conditions -  °F | °C
As of 7:53 PM on Thursday 20 Nov 2014 (Local Time) from KJLN Reporting Station
Clear Clear  
Wind Chill: 35°   Ceiling: Unl
Heat Index: 39°   Visibility: 10mi
Dew Point: 25°   Wind: 6mph
Humidity: 57%   Direction: 90°E
Pressure: 30.17"   Gusts: NA
Location:  37.24°N, 94.42°W
Report Text: KJLN 210153Z 09005KT 10SM CLR 04/M04 A3017 RMK AO2 SLP224 T00391039
Loading
Personal Weather Stations






























Interactive Weather Map New forecast layout! Learn more

10-Day Weather Forecast

Advertisements
Track Severe Weather on mobile